Drummond Island, MI

10:10 PM EST on December 17, 2014 (GMT -0500)
Potagannissing Bay Front | Change Station
CLOSE
Current Station
Personal Weather Station
Location: Drummond Island, MI
Elevation: 587 ft
Nearby Weather Stations

Elev 587 ft 46.06 °N, 83.67 °W | Updated 2 seconds ago

Mostly Cloudy
Mostly Cloudy
21.8 °F
Feels Like 13 °F
N
7.0
Wind Variable Wind from NNW
Gusts 14.0 mph

Today
High -- | Low -- °F
--% Chance of Precip.
Yesterday
High -- | Low -- °F
Precip. -- in
8:11 AM 4:50 PM
Waning Crescent, 18% visible
Pressure 30.07 in
Visibility 10.0 miles
Clouds Scattered Clouds 1900 ft
Mostly Cloudy 4200 ft
Windchill 13 °F
Dew Point 18 °F
Humidity 87%
Rainfall 0.00 in
Snow Depth Not available.
UV 0 out of 12
Pollen .10 out of 12
Air Quality Not available.
Flu Activity Not available.
METAR KDRM 180255Z AUTO 36008G14KT 10SM SCT019 BKN042 M05/M08 A3007 RMK AO2 T10521078

More Conditions Fewer Conditions

Pressure 30.07 in
Visibility 10.0 miles
Clouds Scattered Clouds 1900 ft
Mostly Cloudy 4200 ft
Windchill 13 °F
Dew Point 18 °F
Humidity 87%
Rainfall 0.00 in
Snow Depth Not available.
UV 0 out of 12
Pollen .10 out of 12
Air Quality Not available.
Flu Activity Not available.
METAR KDRM 180255Z AUTO 36008G14KT 10SM SCT019 BKN042 M05/M08 A3007 RMK AO2 T10521078

More Conditions Fewer Conditions

Nowcast | as of 10:00 PM EST on December 17, 2014

At 11 PM...mostly cloudy. Temperature 18. North winds 9 mph. At 1 am...partly cloudy. Temperature 17. North winds 8 mph. At 3 am...partly cloudy. Temperature 16. North winds 7 mph. At 5 am...partly cloudy. Temperature 14. North winds 7 mph.

×

10-Day Weather Forecast

Almanac

Astronomy

Dec. 17, 2014 Rise Set
Actual Time
Civil Twilight
Nautical Twilight
Astronomical Twilight
Moon
Length of Visible Light
Length of Day
Tomorrow will be .
, % of the Moon is Illuminated

Today's Extremes

State Highs State Lows

Community

WunderPhotos

Upload Photos

1,778,874 photos uploaded!

WunderBlogs® & News

Nearby

Air Quality

  Air Quality AQ Index Pollutant
Not available.

Snow Depth

Station Depth Elevation

Earthquake Activity

City Distance Mag. Time & Date
Minimum magnitude displayed is 2.5.

Coastal Water Temperatures

Place Temperature

Nearby Weather Stations